createdAt,value
2022-10-18T03:57:25.640Z,101937.88
2022-10-18T04:00:28.121Z,101937.88
2022-10-18T04:03:30.394Z,101944.72
2022-10-18T04:06:32.420Z,101933.72
2022-10-18T04:09:34.709Z,101936.06
2022-10-18T04:12:36.785Z,101936.41
2022-10-18T04:15:39.198Z,101936.19
2022-10-18T04:18:41.385Z,101930.78
2022-10-18T04:21:43.685Z,101928.44
2022-10-18T04:24:45.725Z,101929.53
2022-10-18T04:27:48.045Z,101924.03
2022-10-18T04:30:53.526Z,101925.22
2022-10-18T04:33:55.818Z,101924.81
2022-10-18T04:36:57.870Z,101929.16
2022-10-18T04:40:00.183Z,101929.16
2022-10-18T04:43:02.302Z,101928.25
2022-10-18T04:46:04.646Z,101922.19
2022-10-18T04:49:06.689Z,101923.94
2022-10-18T04:52:09.294Z,101920.34
2022-10-18T04:55:11.308Z,101914.19
2022-10-18T04:58:13.686Z,101909.09
2022-10-18T05:01:17.066Z,101907.69
2022-10-18T05:04:19.461Z,101908.50
2022-10-18T05:07:21.483Z,101899.78
2022-10-18T05:10:23.766Z,101903.47
2022-10-18T05:13:26.320Z,101900.84
2022-10-18T05:16:28.735Z,101907.59
2022-10-18T05:19:30.810Z,101907.34
2022-10-18T05:22:33.377Z,101907.81
2022-10-18T05:25:38.713Z,101911.72
2022-10-18T05:28:41.587Z,101894.91
2022-10-18T05:31:43.732Z,101901.41
2022-10-18T05:34:46.051Z,101911.56
2022-10-18T05:40:50.650Z,101911.09
2022-10-18T05:43:52.710Z,101912.50
2022-10-18T05:46:55.017Z,101912.13
2022-10-18T05:49:57.458Z,101909.62
2022-10-18T05:53:11.851Z,101896.62
2022-10-18T05:56:14.569Z,101899.91
2022-10-18T05:59:16.869Z,101910.69
2022-10-18T06:02:19.157Z,101905.66
2022-10-18T06:05:21.672Z,101907.28
2022-10-18T06:08:23.760Z,101919.00
2022-10-18T06:11:26.446Z,101910.00
2022-10-18T06:14:28.477Z,101910.16
2022-10-18T06:17:32.614Z,101912.94
2022-10-18T06:20:34.869Z,101911.06
2022-10-18T06:23:37.207Z,101905.44
2022-10-18T06:26:39.293Z,101919.38
2022-10-18T06:29:41.639Z,101924.97
2022-10-18T06:32:43.732Z,101930.00
2022-10-18T06:36:07.069Z,101925.53
2022-10-18T06:39:10.490Z,101924.06
2022-10-18T06:42:12.762Z,101925.03
2022-10-18T06:45:15.897Z,101921.66
2022-10-18T06:51:22.275Z,101922.72
2022-10-18T06:54:24.573Z,101920.44
2022-10-18T06:57:26.706Z,101925.44
2022-10-18T07:00:29.070Z,101926.97
2022-10-18T07:03:31.138Z,101924.72
2022-10-18T07:06:33.459Z,101949.97
2022-10-18T07:09:35.835Z,101940.38
2022-10-18T07:12:40.461Z,101935.91
2022-10-18T07:15:42.693Z,101931.50
2022-10-18T07:18:49.163Z,101928.50
2022-10-18T07:21:51.193Z,101919.16
2022-10-18T07:24:53.637Z,101921.87
2022-10-18T07:27:55.929Z,101921.59
2022-10-18T07:31:06.106Z,101916.56
2022-10-18T07:34:12.213Z,101906.09
2022-10-18T07:37:14.514Z,101908.84
2022-10-18T07:40:16.685Z,101904.28
2022-10-18T07:43:18.957Z,101909.47
2022-10-18T07:46:22.179Z,101906.28
2022-10-18T07:49:24.508Z,101915.47
2022-10-18T07:52:26.539Z,101902.78
2022-10-18T07:55:28.839Z,101899.84
2022-10-18T07:58:32.584Z,101891.25
2022-10-18T08:01:34.948Z,101901.75
2022-10-18T08:04:37.350Z,101897.22
2022-10-18T08:07:39.587Z,101894.81
2022-10-18T08:10:41.989Z,101891.81
2022-10-18T08:13:46.000Z,101888.88
2022-10-18T08:16:48.303Z,101880.78
2022-10-18T08:20:04.662Z,101880.50
2022-10-18T08:23:12.872Z,101881.63
2022-10-18T08:26:17.467Z,101878.63
2022-10-18T08:29:26.732Z,101873.00
2022-10-18T08:32:31.156Z,101869.19
2022-10-18T08:35:33.774Z,101863.81
2022-10-18T08:38:37.225Z,101859.72
2022-10-18T08:42:06.341Z,101855.16
2022-10-18T08:45:17.728Z,101851.91
2022-10-18T08:48:49.448Z,101841.38
2022-10-18T08:51:52.336Z,101849.72
2022-10-18T08:55:29.784Z,101847.03
2022-10-18T08:58:33.630Z,101833.50
2022-10-18T09:01:52.517Z,101832.16
2022-10-18T09:05:01.313Z,101822.66
2022-10-18T09:08:21.935Z,101820.75
2022-10-18T09:11:38.007Z,101815.06
2022-10-18T09:15:19.237Z,101815.59
2022-10-18T09:18:48.122Z,101812.84
2022-10-18T09:21:55.594Z,101805.00
2022-10-18T09:25:00.369Z,101805.19
2022-10-18T09:28:33.496Z,101798.38
2022-10-18T09:31:48.572Z,101801.28
2022-10-18T09:35:02.118Z,101790.53
2022-10-18T09:38:09.177Z,101796.50
2022-10-18T09:41:26.696Z,101802.87
2022-10-18T09:44:36.922Z,101793.72
2022-10-18T09:47:47.835Z,101785.50
2022-10-18T09:51:00.700Z,101778.19
2022-10-18T09:54:11.614Z,101771.09
2022-10-18T09:57:21.811Z,101766.44
2022-10-18T10:00:38.714Z,101766.31
2022-10-18T10:03:42.503Z,101761.78
2022-10-18T10:06:50.740Z,101758.91
2022-10-18T10:10:08.844Z,101758.00
2022-10-18T10:13:22.672Z,101760.25
2022-10-18T10:16:26.914Z,101744.19
2022-10-18T10:19:32.214Z,101738.25
2022-10-18T10:22:37.972Z,101737.28
2022-10-18T10:25:41.104Z,101733.25
2022-10-18T10:28:46.303Z,101729.16
2022-10-18T10:32:02.450Z,101721.50
2022-10-18T10:35:35.304Z,101722.81
2022-10-18T10:38:44.678Z,101718.47
2022-10-18T10:41:50.822Z,101712.75
2022-10-18T10:44:55.876Z,101703.84
2022-10-18T10:48:08.077Z,101691.31
2022-10-18T10:51:10.827Z,101690.22
2022-10-18T10:54:16.581Z,101694.25
2022-10-18T10:57:25.899Z,101688.78
2022-10-18T11:00:37.494Z,101686.56
2022-10-18T11:03:46.845Z,101682.88
2022-10-18T11:06:53.940Z,101673.94
2022-10-18T11:10:11.360Z,101673.84
2022-10-18T11:13:41.474Z,101660.47
2022-10-18T11:17:10.524Z,101648.09
2022-10-18T11:20:24.732Z,101648.31
2022-10-18T11:23:34.041Z,101650.84
2022-10-18T11:27:02.358Z,101650.94
2022-10-18T11:30:16.778Z,101641.03
2022-10-18T11:33:56.425Z,101642.88
2022-10-18T11:37:32.333Z,101632.97
2022-10-18T11:40:40.600Z,101633.19
2022-10-18T11:44:06.939Z,101626.97
2022-10-18T11:47:34.393Z,101617.97
2022-10-18T11:50:48.661Z,101617.16
2022-10-18T11:54:08.256Z,101608.19
2022-10-18T11:57:44.652Z,101602.19
2022-10-18T12:00:53.348Z,101595.66
2022-10-18T12:04:07.874Z,101590.53
2022-10-18T12:07:14.030Z,101577.16
2022-10-18T12:10:31.405Z,101574.38
2022-10-18T12:14:19.270Z,101570.56
2022-10-18T12:17:49.885Z,101570.31
2022-10-18T12:20:58.105Z,101548.91
2022-10-18T12:24:07.826Z,101552.94
2022-10-18T12:27:15.159Z,101553.44
2022-10-18T12:30:42.267Z,101542.47
2022-10-18T12:33:48.633Z,101545.63
2022-10-18T12:37:00.881Z,101530.22
2022-10-18T12:40:14.554Z,101531.34
2022-10-18T12:43:32.772Z,101532.94
2022-10-18T12:46:54.400Z,101516.44
2022-10-18T12:50:03.130Z,101514.06
2022-10-18T12:53:29.749Z,101515.06
2022-10-18T12:56:37.610Z,101498.69
2022-10-18T12:59:41.066Z,101496.78
2022-10-18T13:02:43.379Z,101496.88
2022-10-18T13:05:55.711Z,101494.28
2022-10-18T13:09:31.100Z,101495.16
2022-10-18T13:12:50.769Z,101491.13
2022-10-18T13:16:02.538Z,101483.00
2022-10-18T13:19:29.633Z,101474.16
2022-10-18T13:23:00.281Z,101468.72
2022-10-18T13:26:31.864Z,101473.03
2022-10-18T13:29:58.652Z,101475.13
2022-10-18T13:33:31.643Z,101466.09
2022-10-18T13:36:33.971Z,101467.19
2022-10-18T13:39:37.660Z,101470.59
2022-10-18T13:42:40.044Z,101471.09
2022-10-18T13:45:44.702Z,101466.34
2022-10-18T13:48:59.265Z,101474.13
2022-10-18T13:52:34.193Z,101465.06
2022-10-18T13:55:36.618Z,101461.06
2022-10-18T13:59:15.119Z,101458.62
2022-10-18T14:02:59.698Z,101450.63
2022-10-18T14:06:15.016Z,101447.91
2022-10-18T14:09:40.270Z,101447.37
2022-10-18T14:12:54.038Z,101433.34
2022-10-18T14:16:05.392Z,101439.25
2022-10-18T14:19:26.069Z,101434.94
2022-10-18T14:23:02.614Z,101432.03
2022-10-18T14:26:13.117Z,101429.00
2022-10-18T14:29:20.270Z,101427.41
2022-10-18T14:32:28.936Z,101428.34
2022-10-18T14:35:33.786Z,101418.09
2022-10-18T14:38:38.561Z,101424.41
2022-10-18T14:41:49.955Z,101416.59
2022-10-18T14:44:54.435Z,101412.06
2022-10-18T14:48:06.489Z,101406.63
2022-10-18T14:51:11.288Z,101404.44
2022-10-18T14:54:36.499Z,101397.22
2022-10-18T14:57:38.769Z,101392.41
2022-10-18T15:00:42.837Z,101390.78
2022-10-18T15:03:48.102Z,101391.09
2022-10-18T15:06:50.142Z,101380.56
2022-10-18T15:09:53.486Z,101380.97
2022-10-18T15:13:09.658Z,101377.16
2022-10-18T15:16:18.322Z,101376.44
2022-10-18T15:19:31.514Z,101382.75
2022-10-18T15:22:34.070Z,101376.34
